createdAt,value
2022-12-12T00:01:21.288Z,16.85
2022-12-12T00:03:49.181Z,17.70
2022-12-12T00:06:17.105Z,16.92
2022-12-12T00:08:45.095Z,17.67
2022-12-12T00:11:13.268Z,17.33
2022-12-12T00:13:41.534Z,16.23
2022-12-12T00:16:11.282Z,17.90
2022-12-12T00:18:39.709Z,17.42
2022-12-12T00:21:12.303Z,16.65
2022-12-12T00:23:40.125Z,17.58
2022-12-12T00:26:10.385Z,17.33
2022-12-12T00:28:38.188Z,16.75
2022-12-12T00:31:06.556Z,16.88
2022-12-12T00:33:35.751Z,16.17
2022-12-12T00:36:03.616Z,17.70
2022-12-12T00:38:31.534Z,17.70
2022-12-12T00:41:00.557Z,16.80
2022-12-12T00:43:28.975Z,17.33
2022-12-12T00:45:59.526Z,17.67
2022-12-12T00:48:27.614Z,17.45
2022-12-12T00:50:57.140Z,17.95
2022-12-12T00:53:25.568Z,17.70
2022-12-12T00:55:57.317Z,17.27
2022-12-12T00:58:25.366Z,17.85
2022-12-12T01:00:54.184Z,18.25
2022-12-12T01:03:22.649Z,18.00
2022-12-12T01:05:50.717Z,18.00
2022-12-12T01:08:19.995Z,19.00
2022-12-12T01:10:47.905Z,18.90
2022-12-12T01:13:15.708Z,17.92
2022-12-12T01:15:43.593Z,18.08
2022-12-12T01:18:11.407Z,18.15
2022-12-12T01:20:39.353Z,18.55
2022-12-12T01:23:07.138Z,18.15
2022-12-12T01:25:36.305Z,19.48
2022-12-12T01:28:04.801Z,19.02
2022-12-12T01:30:32.818Z,18.83
2022-12-12T01:33:00.784Z,19.20
2022-12-12T01:35:28.872Z,18.13
2022-12-12T01:37:56.657Z,18.60
2022-12-12T01:40:26.749Z,18.92
2022-12-12T01:42:56.521Z,17.70
2022-12-12T01:46:02.496Z,18.35
2022-12-12T01:48:33.459Z,18.92
2022-12-12T01:51:04.055Z,18.40
2022-12-12T01:53:34.154Z,18.60
2022-12-12T01:56:03.794Z,18.05
2022-12-12T01:58:33.460Z,18.23
2022-12-12T02:01:02.041Z,18.52
2022-12-12T02:03:30.112Z,17.98
2022-12-12T02:06:01.236Z,17.35
2022-12-12T02:08:30.586Z,17.90
2022-12-12T02:10:58.410Z,18.52
2022-12-12T02:13:29.718Z,17.70
2022-12-12T02:16:07.573Z,17.55
2022-12-12T02:18:45.806Z,17.83
2022-12-12T02:21:21.642Z,17.58
2022-12-12T02:24:30.823Z,16.83
2022-12-12T02:27:20.980Z,16.92
2022-12-12T02:30:11.622Z,17.40
2022-12-12T02:33:14.790Z,17.52
2022-12-12T02:35:54.932Z,17.08
2022-12-12T02:38:28.927Z,17.05
2022-12-12T02:41:06.808Z,17.23
2022-12-12T02:43:40.738Z,17.33
2022-12-12T02:46:14.368Z,16.45
2022-12-12T02:48:49.464Z,17.50
2022-12-12T02:51:17.839Z,17.63
2022-12-12T02:53:45.629Z,17.48
2022-12-12T02:56:45.851Z,17.38
2022-12-12T02:59:18.775Z,17.05
2022-12-12T03:02:08.001Z,17.17
2022-12-12T03:05:03.870Z,17.05
2022-12-12T03:07:50.327Z,17.35
2022-12-12T03:10:32.989Z,16.80
2022-12-12T03:13:12.904Z,17.15
2022-12-12T03:15:49.607Z,16.60
2022-12-12T03:18:27.926Z,16.27
2022-12-12T03:21:03.034Z,16.90
2022-12-12T03:23:35.597Z,15.65
2022-12-12T03:26:11.422Z,16.20
2022-12-12T03:28:43.486Z,16.73
2022-12-12T03:31:13.190Z,16.08
2022-12-12T03:33:44.465Z,16.83
2022-12-12T03:36:17.306Z,16.33
2022-12-12T03:38:56.917Z,16.17
2022-12-12T03:41:29.402Z,16.73
2022-12-12T03:44:02.912Z,16.30
2022-12-12T03:46:34.561Z,16.17
2022-12-12T03:49:06.283Z,16.75
2022-12-12T03:51:40.310Z,17.45
2022-12-12T03:54:13.322Z,16.48
2022-12-12T03:56:47.385Z,16.50
2022-12-12T03:59:26.943Z,15.95
2022-12-12T04:02:00.800Z,16.75
2022-12-12T04:04:32.205Z,16.95
2022-12-12T04:07:07.077Z,16.55
2022-12-12T04:09:52.794Z,16.50
2022-12-12T04:12:42.333Z,16.50
2022-12-12T04:15:25.665Z,16.10
2022-12-12T04:18:01.383Z,16.25
2022-12-12T04:20:55.425Z,17.05
2022-12-12T04:23:33.428Z,16.25
2022-12-12T04:26:24.048Z,16.65
2022-12-12T04:29:03.433Z,16.52
2022-12-12T04:31:34.199Z,17.45
2022-12-12T04:34:06.891Z,17.15
2022-12-12T04:36:36.201Z,16.88
2022-12-12T04:39:07.478Z,17.85
2022-12-12T04:41:38.095Z,17.10
2022-12-12T04:44:09.092Z,16.90
2022-12-12T04:46:37.892Z,17.30
2022-12-12T04:49:15.245Z,17.27
2022-12-12T04:51:46.417Z,17.25
2022-12-12T04:54:23.229Z,16.57
2022-12-12T04:56:55.364Z,17.08
2022-12-12T04:59:23.877Z,17.05
2022-12-12T05:01:56.530Z,17.35
2022-12-12T05:04:30.156Z,17.33
2022-12-12T05:07:01.922Z,16.83
2022-12-12T05:09:31.222Z,17.27
2022-12-12T05:11:59.266Z,17.77
2022-12-12T05:14:27.220Z,16.63
2022-12-12T05:17:00.382Z,17.40
2022-12-12T05:19:28.271Z,16.92
2022-12-12T05:21:56.018Z,16.20
2022-12-12T05:24:23.807Z,16.92
2022-12-12T05:26:53.035Z,16.35
2022-12-12T05:29:20.806Z,15.85
2022-12-12T05:31:48.603Z,16.15
2022-12-12T05:34:16.398Z,16.23
2022-12-12T05:36:44.181Z,16.02
2022-12-12T05:39:11.974Z,16.13
2022-12-12T05:41:39.853Z,16.80
2022-12-12T05:44:09.108Z,16.13
2022-12-12T05:46:37.069Z,16.75
2022-12-12T05:49:05.698Z,16.23
2022-12-12T05:51:33.541Z,16.30
2022-12-12T05:54:01.351Z,16.05
2022-12-12T05:56:29.211Z,17.20
2022-12-12T05:58:56.997Z,16.08
2022-12-12T06:01:26.146Z,15.98
2022-12-12T06:03:54.079Z,16.35
2022-12-12T06:06:21.865Z,16.58
2022-12-12T06:08:49.763Z,17.17
2022-12-12T06:11:17.544Z,16.70
2022-12-12T06:13:45.306Z,15.82
2022-12-12T06:16:17.998Z,15.90
2022-12-12T06:18:52.014Z,16.17
2022-12-12T06:21:20.835Z,16.45
2022-12-12T06:23:48.972Z,16.15
2022-12-12T06:26:18.227Z,16.15
2022-12-12T06:28:46.677Z,16.63
2022-12-12T06:31:15.655Z,16.33
2022-12-12T06:33:44.756Z,16.00
2022-12-12T06:36:16.663Z,15.85
2022-12-12T06:38:44.541Z,17.20
2022-12-12T06:41:14.552Z,16.40
2022-12-12T06:43:42.708Z,16.73
2022-12-12T06:46:15.453Z,16.10
2022-12-12T06:48:43.478Z,16.08
2022-12-12T06:51:15.078Z,17.40
2022-12-12T06:53:43.206Z,17.00
2022-12-12T06:56:14.057Z,17.33
2022-12-12T06:58:41.950Z,16.67
2022-12-12T07:01:11.921Z,17.27
2022-12-12T07:03:40.458Z,16.70
2022-12-12T07:06:08.753Z,16.48
2022-12-12T07:08:38.461Z,15.98
2022-12-12T07:11:07.350Z,15.63
2022-12-12T07:13:35.498Z,16.00
2022-12-12T07:16:03.361Z,16.35
2022-12-12T07:18:31.154Z,16.15
2022-12-12T07:20:59.119Z,15.48
2022-12-12T07:23:27.260Z,16.42
2022-12-12T07:25:56.499Z,16.40
2022-12-12T07:28:24.741Z,16.77
2022-12-12T07:30:52.632Z,16.63
2022-12-12T07:33:21.491Z,15.73
2022-12-12T07:35:49.390Z,16.05
2022-12-12T07:38:17.206Z,15.05
2022-12-12T07:40:45.461Z,15.15
2022-12-12T07:43:14.593Z,15.40
2022-12-12T07:45:45.681Z,15.15
2022-12-12T07:48:13.507Z,15.70
2022-12-12T07:50:41.846Z,15.43
2022-12-12T07:53:10.095Z,15.63
2022-12-12T07:55:40.488Z,15.48
2022-12-12T07:58:08.253Z,15.25
2022-12-12T08:00:37.481Z,15.60
2022-12-12T08:03:05.273Z,14.52
2022-12-12T08:05:33.263Z,14.60
2022-12-12T08:08:01.122Z,14.38
2022-12-12T08:10:28.941Z,14.23
2022-12-12T08:12:56.698Z,14.90
2022-12-12T08:15:24.480Z,13.57
2022-12-12T08:17:53.655Z,14.18
2022-12-12T08:20:22.722Z,14.27
2022-12-12T08:22:50.550Z,13.88
2022-12-12T08:25:18.493Z,13.80
2022-12-12T08:27:46.252Z,13.27
2022-12-12T08:30:14.454Z,13.02
2022-12-12T08:32:42.258Z,13.15
2022-12-12T08:35:12.173Z,13.70
2022-12-12T08:37:40.137Z,14.57
2022-12-12T08:40:09.005Z,14.18
2022-12-12T08:42:36.765Z,13.70
2022-12-12T08:45:05.589Z,13.85
2022-12-12T08:47:33.391Z,13.40
2022-12-12T08:50:01.165Z,13.10
2022-12-12T08:52:30.361Z,13.37
2022-12-12T08:54:58.303Z,12.50
2022-12-12T08:57:26.298Z,12.98
2022-12-12T08:59:54.205Z,12.27
2022-12-12T09:02:22.080Z,12.05
2022-12-12T09:04:49.955Z,11.98
2022-12-12T09:07:17.716Z,11.53
2022-12-12T09:09:46.855Z,10.52
2022-12-12T09:12:15.375Z,10.05
2022-12-12T09:14:43.189Z,11.45
2022-12-12T09:17:10.977Z,10.65
2022-12-12T09:19:38.858Z,10.48
2022-12-12T09:22:06.712Z,10.20
2022-12-12T09:24:34.520Z,10.02
2022-12-12T09:27:04.358Z,10.68
2022-12-12T09:29:32.277Z,10.73
2022-12-12T09:32:06.163Z,10.40
2022-12-12T09:34:34.006Z,10.35
2022-12-12T09:37:02.601Z,10.13
2022-12-12T09:39:30.824Z,10.48
2022-12-12T09:41:58.654Z,10.43
2022-12-12T09:44:27.854Z,10.27
2022-12-12T09:46:58.269Z,9.60
2022-12-12T09:49:41.476Z,9.90
2022-12-12T09:52:14.464Z,9.45
2022-12-12T09:54:42.282Z,9.73
2022-12-12T09:57:24.647Z,10.30
2022-12-12T09:59:59.083Z,9.77
2022-12-12T10:02:43.741Z,9.30
2022-12-12T10:05:22.906Z,9.10
2022-12-12T10:08:00.375Z,8.70
2022-12-12T10:10:34.477Z,8.93
2022-12-12T10:13:05.372Z,9.20
2022-12-12T10:15:38.164Z,8.77
2022-12-12T10:18:09.355Z,9.02
2022-12-12T10:20:44.589Z,8.85
2022-12-12T10:23:20.678Z,8.70
2022-12-12T10:25:52.993Z,9.00
2022-12-12T10:28:24.456Z,9.00
2022-12-12T10:31:06.148Z,8.15
2022-12-12T10:33:47.209Z,8.40
2022-12-12T10:36:22.075Z,8.65
2022-12-12T10:39:04.275Z,7.68
2022-12-12T10:41:41.631Z,8.05
2022-12-12T10:44:20.355Z,8.27
2022-12-12T10:46:59.802Z,7.40
2022-12-12T10:49:28.152Z,8.02
2022-12-12T10:51:57.237Z,7.20
2022-12-12T10:54:27.873Z,6.77
2022-12-12T10:57:14.020Z,6.00
2022-12-12T10:59:47.761Z,7.13
2022-12-12T11:02:28.723Z,6.97
2022-12-12T11:05:02.521Z,7.50
2022-12-12T11:07:30.622Z,8.30
2022-12-12T11:10:02.125Z,9.60
2022-12-12T11:12:34.739Z,8.45
2022-12-12T11:15:06.969Z,8.80
2022-12-12T11:17:36.237Z,9.13
2022-12-12T11:20:17.701Z,6.00
2022-12-12T11:22:45.742Z,5.75
2022-12-12T11:25:25.626Z,6.35
2022-12-12T11:27:55.225Z,5.72
2022-12-12T11:30:34.771Z,5.60
2022-12-12T11:33:06.463Z,6.65
2022-12-12T11:35:41.161Z,7.05
2022-12-12T11:38:19.944Z,6.30
2022-12-12T11:40:58.182Z,5.72
2022-12-12T11:43:28.127Z,6.38
2022-12-12T11:46:01.926Z,6.00
2022-12-12T11:48:35.459Z,6.80
2022-12-12T11:51:03.650Z,5.38
2022-12-12T11:53:34.386Z,5.40
2022-12-12T11:56:31.072Z,6.03
2022-12-12T11:59:12.401Z,6.10
2022-12-12T12:01:49.305Z,6.60
2022-12-12T12:04:37.067Z,6.22
2022-12-12T12:07:21.621Z,5.40
2022-12-12T12:09:54.936Z,5.50
2022-12-12T12:12:29.376Z,5.72
2022-12-12T12:15:08.340Z,6.07
2022-12-12T12:17:58.546Z,6.32
2022-12-12T12:20:40.553Z,5.38
2022-12-12T12:23:20.925Z,6.20
2022-12-12T12:25:56.944Z,5.75
2022-12-12T12:28:48.784Z,6.23
2022-12-12T12:31:25.588Z,6.15
2022-12-12T12:34:08.734Z,6.00
2022-12-12T12:36:52.251Z,5.40
2022-12-12T12:39:34.584Z,5.13
2022-12-12T12:42:16.017Z,5.57
2022-12-12T12:44:50.600Z,5.68
2022-12-12T12:47:27.948Z,5.70
2022-12-12T12:50:00.013Z,5.47
2022-12-12T12:52:35.611Z,4.70
2022-12-12T12:55:05.370Z,5.23
2022-12-12T12:57:37.205Z,5.20
2022-12-12T13:00:09.870Z,5.27
2022-12-12T13:02:47.023Z,4.70
2022-12-12T13:05:21.175Z,4.72
2022-12-12T13:07:58.313Z,4.72
2022-12-12T13:10:29.143Z,5.07
2022-12-12T13:13:00.653Z,4.50
2022-12-12T13:15:32.144Z,4.43
2022-12-12T13:18:03.597Z,5.03
2022-12-12T13:20:34.863Z,4.82
2022-12-12T13:23:37.842Z,4.70
2022-12-12T13:26:13.728Z,4.30
2022-12-12T13:28:46.714Z,4.80
2022-12-12T13:31:39.231Z,4.45
2022-12-12T13:34:09.835Z,4.65
2022-12-12T13:36:40.212Z,4.55
2022-12-12T13:39:23.136Z,4.50
2022-12-12T13:42:01.124Z,4.00
2022-12-12T13:44:38.639Z,4.17
2022-12-12T13:47:15.652Z,4.65
2022-12-12T13:49:51.151Z,4.30
2022-12-12T13:52:26.616Z,4.47
2022-12-12T13:55:18.053Z,4.75
2022-12-12T13:58:07.875Z,5.60
2022-12-12T14:00:36.895Z,6.38
2022-12-12T14:03:24.158Z,6.47
2022-12-12T14:05:53.325Z,7.10
2022-12-12T14:08:29.396Z,5.40
2022-12-12T14:11:03.502Z,5.90
2022-12-12T14:13:45.294Z,6.30
2022-12-12T14:16:22.824Z,5.57
2022-12-12T14:19:09.306Z,5.28
2022-12-12T14:21:46.521Z,6.85
2022-12-12T14:24:56.921Z,8.23
2022-12-12T14:27:58.506Z,7.78
2022-12-12T14:30:41.127Z,9.05
2022-12-12T14:33:24.230Z,7.85
2022-12-12T14:35:59.620Z,8.35
2022-12-12T14:38:35.484Z,8.57
2022-12-12T14:41:06.321Z,7.90
2022-12-12T14:43:38.048Z,7.60
2022-12-12T14:46:17.128Z,7.80
2022-12-12T14:48:45.316Z,7.97
2022-12-12T14:51:25.847Z,7.80
2022-12-12T14:53:58.427Z,8.60
2022-12-12T14:56:29.399Z,9.07
2022-12-12T14:59:00.465Z,9.02
2022-12-12T15:01:33.406Z,9.02
2022-12-12T15:04:04.505Z,10.82
2022-12-12T15:06:35.340Z,11.38
2022-12-12T15:09:18.336Z,12.18
2022-12-12T15:11:46.818Z,11.80
2022-12-12T15:14:20.986Z,11.85
2022-12-12T15:16:54.035Z,12.85
2022-12-12T15:19:27.346Z,13.23
2022-12-12T15:21:55.495Z,13.40
2022-12-12T15:24:25.354Z,12.88
2022-12-12T15:26:55.821Z,13.45
2022-12-12T15:29:27.283Z,13.48
2022-12-12T15:32:03.227Z,13.27
2022-12-12T15:34:42.225Z,13.20
2022-12-12T15:37:29.456Z,13.35
2022-12-12T15:40:20.955Z,13.73
2022-12-12T15:42:53.630Z,13.93
2022-12-12T15:45:26.474Z,13.48
2022-12-12T15:47:56.760Z,13.57
2022-12-12T15:50:28.100Z,13.70
2022-12-12T15:53:05.549Z,14.20
2022-12-12T15:55:33.977Z,14.18
2022-12-12T15:58:01.846Z,13.30
2022-12-12T16:00:39.596Z,13.43
2022-12-12T16:03:22.514Z,13.88
2022-12-12T16:06:06.430Z,14.50
2022-12-12T16:08:40.268Z,14.15
2022-12-12T16:11:32.473Z,13.68
2022-12-12T16:14:01.090Z,14.50
2022-12-12T16:16:39.037Z,13.38
2022-12-12T16:19:27.256Z,13.82
2022-12-12T16:21:55.625Z,14.15
2022-12-12T16:24:26.095Z,14.43
2022-12-12T16:26:57.097Z,15.02
2022-12-12T16:29:24.840Z,13.88
2022-12-12T16:31:52.796Z,14.10
2022-12-12T16:34:22.129Z,14.10
2022-12-12T16:36:50.262Z,14.18
2022-12-12T16:39:18.004Z,14.57
2022-12-12T16:41:45.942Z,14.70
2022-12-12T16:44:14.018Z,14.27
2022-12-12T16:46:41.821Z,14.52
2022-12-12T16:49:15.032Z,13.77
2022-12-12T16:51:44.543Z,15.00
2022-12-12T16:54:16.917Z,14.52
2022-12-12T16:56:50.359Z,14.25
2022-12-12T16:59:18.210Z,15.10
2022-12-12T17:01:46.225Z,14.73
2022-12-12T17:04:22.155Z,14.25
2022-12-12T17:06:51.706Z,14.27
2022-12-12T17:09:19.749Z,14.30
2022-12-12T17:11:47.850Z,15.48
2022-12-12T17:14:18.877Z,14.73
2022-12-12T17:16:46.754Z,14.80
2022-12-12T17:19:14.832Z,15.48
2022-12-12T17:21:42.658Z,15.32
2022-12-12T17:24:11.905Z,14.65
2022-12-12T17:26:40.081Z,15.02
2022-12-12T17:29:17.260Z,15.05
2022-12-12T17:31:45.667Z,15.73
2022-12-12T17:34:13.504Z,16.70
2022-12-12T17:36:41.316Z,15.90
2022-12-12T17:39:09.189Z,14.80
2022-12-12T17:41:38.319Z,15.52
2022-12-12T17:44:06.328Z,15.80
2022-12-12T17:46:34.156Z,16.02
2022-12-12T17:49:03.233Z,16.55
2022-12-12T17:51:31.067Z,15.07
2022-12-12T17:54:00.093Z,15.00
2022-12-12T17:56:28.237Z,15.95
2022-12-12T17:58:57.354Z,15.52
2022-12-12T18:01:28.011Z,16.08
2022-12-12T18:03:57.297Z,15.70
2022-12-12T18:06:26.664Z,16.27
2022-12-12T18:08:54.704Z,15.43
2022-12-12T18:11:24.583Z,15.60
2022-12-12T18:13:53.727Z,15.77
2022-12-12T18:16:24.583Z,15.32
2022-12-12T18:18:53.416Z,16.67
2022-12-12T18:21:51.758Z,16.27
2022-12-12T18:24:11.382Z,15.63
2022-12-12T18:26:39.305Z,15.53
2022-12-12T18:29:08.773Z,15.93
2022-12-12T18:31:38.004Z,15.87
2022-12-12T18:34:06.902Z,16.33
2022-12-12T18:36:34.958Z,16.08
2022-12-12T18:39:05.180Z,15.20
2022-12-12T18:41:33.975Z,14.18
2022-12-12T18:44:07.049Z,14.30
2022-12-12T18:46:42.376Z,13.93
2022-12-12T18:49:13.544Z,13.82
2022-12-12T18:51:41.400Z,13.10
2022-12-12T18:54:14.197Z,13.23
2022-12-12T18:56:43.741Z,13.38
2022-12-12T18:59:11.913Z,13.13
2022-12-12T19:01:41.331Z,12.97
2022-12-12T19:04:13.365Z,13.32
2022-12-12T19:06:43.439Z,13.68
2022-12-12T19:09:14.394Z,13.73
2022-12-12T19:11:42.473Z,12.95
2022-12-12T19:14:12.380Z,12.38
2022-12-12T19:16:42.208Z,12.93
2022-12-12T19:19:10.225Z,12.20
2022-12-12T19:21:38.374Z,12.68
2022-12-12T19:24:10.494Z,12.25
2022-12-12T19:26:40.403Z,12.38
2022-12-12T19:29:11.730Z,11.95
2022-12-12T19:31:41.112Z,13.20
2022-12-12T19:34:11.386Z,12.88
2022-12-12T19:36:39.645Z,12.48
2022-12-12T19:39:08.810Z,12.38
2022-12-12T19:41:36.817Z,13.20
2022-12-12T19:44:08.573Z,13.20
2022-12-12T19:46:36.758Z,12.60
2022-12-12T19:49:08.679Z,12.70
2022-12-12T19:51:39.180Z,12.13
2022-12-12T19:54:09.206Z,12.63
2022-12-12T19:56:40.573Z,13.15
2022-12-12T19:59:09.589Z,12.90
2022-12-12T20:01:38.762Z,12.77
2022-12-12T20:04:12.186Z,12.18
2022-12-12T20:06:45.158Z,13.25
2022-12-12T20:09:14.829Z,13.25
2022-12-12T20:11:45.021Z,12.93
2022-12-12T20:14:15.106Z,12.00
2022-12-12T20:16:43.303Z,12.48
2022-12-12T20:19:13.522Z,13.40
2022-12-12T20:22:00.354Z,12.60
2022-12-12T20:24:29.921Z,13.13
2022-12-12T20:26:59.347Z,13.68
2022-12-12T20:29:27.177Z,13.83
2022-12-12T20:31:54.986Z,14.10
2022-12-12T20:34:25.074Z,13.93
2022-12-12T20:36:55.680Z,13.75
2022-12-12T20:39:24.662Z,14.02
2022-12-12T20:41:53.448Z,13.55
2022-12-12T20:44:22.360Z,13.40
2022-12-12T20:46:50.172Z,14.00
2022-12-12T20:49:19.747Z,13.88
2022-12-12T20:51:57.950Z,13.70
2022-12-12T20:54:27.704Z,13.35
2022-12-12T20:56:57.121Z,13.02
2022-12-12T20:59:26.066Z,13.18
2022-12-12T21:01:54.541Z,12.77
2022-12-12T21:04:24.043Z,13.07
2022-12-12T21:06:53.233Z,12.52
2022-12-12T21:09:25.769Z,12.95
2022-12-12T21:11:55.290Z,12.45
2022-12-12T21:14:23.477Z,12.00
2022-12-12T21:16:51.309Z,12.27
2022-12-12T21:19:19.691Z,12.45
2022-12-12T21:21:47.885Z,12.05
2022-12-12T21:24:18.473Z,12.02
2022-12-12T21:26:46.662Z,12.55
2022-12-12T21:29:15.272Z,12.35
2022-12-12T21:31:50.215Z,12.48
2022-12-12T21:34:19.871Z,11.77
2022-12-12T21:36:50.262Z,11.75
2022-12-12T21:39:19.397Z,12.25
2022-12-12T21:41:47.517Z,12.65
2022-12-12T21:44:15.293Z,11.98
2022-12-12T21:46:43.916Z,11.90
2022-12-12T21:49:26.521Z,11.40
2022-12-12T21:51:55.908Z,11.70
2022-12-12T21:54:25.664Z,12.02
2022-12-12T21:56:53.978Z,11.43
2022-12-12T21:59:21.782Z,11.65
2022-12-12T22:01:49.652Z,11.43
2022-12-12T22:04:17.585Z,12.70
2022-12-12T22:06:46.878Z,11.88
2022-12-12T22:09:14.750Z,11.73
2022-12-12T22:11:48.184Z,11.55
2022-12-12T22:14:18.602Z,10.87
2022-12-12T22:16:46.409Z,11.47
2022-12-12T22:19:15.703Z,10.90
2022-12-12T22:21:45.339Z,11.65
2022-12-12T22:24:13.141Z,10.45
2022-12-12T22:26:44.885Z,10.70
2022-12-12T22:29:15.691Z,10.77
2022-12-12T22:31:44.742Z,11.13
2022-12-12T22:34:14.486Z,11.10
2022-12-12T22:36:43.005Z,11.10
2022-12-12T22:39:15.482Z,11.00
2022-12-12T22:41:44.945Z,10.95
2022-12-12T22:44:15.737Z,11.07
2022-12-12T22:46:44.760Z,11.02
2022-12-12T22:49:14.814Z,10.88
2022-12-12T22:51:43.715Z,11.32
2022-12-12T22:54:12.287Z,10.45
2022-12-12T22:56:43.903Z,11.23
2022-12-12T22:59:13.748Z,11.13
2022-12-12T23:01:42.109Z,11.73
2022-12-12T23:04:11.595Z,10.95
2022-12-12T23:06:39.658Z,11.55
2022-12-12T23:09:09.936Z,11.20
2022-12-12T23:11:37.727Z,11.23
2022-12-12T23:14:08.577Z,11.77
2022-12-12T23:16:37.456Z,11.82
2022-12-12T23:19:06.699Z,11.52
2022-12-12T23:21:36.443Z,11.63
2022-12-12T23:24:04.858Z,11.40
2022-12-12T23:26:35.066Z,11.57
2022-12-12T23:29:03.528Z,11.40
2022-12-12T23:31:34.920Z,12.07
2022-12-12T23:34:05.778Z,12.18
2022-12-12T23:36:33.884Z,11.67
2022-12-12T23:39:03.491Z,12.15
2022-12-12T23:41:31.621Z,11.23
2022-12-12T23:43:59.605Z,11.32
2022-12-12T23:46:31.838Z,12.07
2022-12-12T23:49:02.674Z,12.00
2022-12-12T23:51:33.071Z,11.93
2022-12-12T23:54:02.021Z,11.45
2022-12-12T23:56:30.106Z,11.88
2022-12-12T23:58:58.669Z,11.93
